Taller para Instructores 2018

Taller para Instructores de Piloto Privado de Avión

Nos visitaron en el mes de Julio del 2018  los integrantes de la ANAC y la Federación Argentina de Aeroclubes con el motivo de realizar el Taller para Instructores de Piloto Privado de Avión. Agradecemos en su confianza para con nosotros como así también de la presencia de los instructores de la zona.

Facebook Aeroclub Mar del Plata

Informe Climatico
MAR DEL PLATA AR
Metar
SAZM 180300Z 18004KT 1000 R13/1600 BR 14/14 Q1014
TAF
TAF SAZM 172300Z 1800/1824 14010KT 0200 FG OVC002 TX16/1818Z TN10/1810Z PROB30 TEMPO 1806/1812 18010KT 1000 BR OVC002 BECMG 1817/1818 18015KT 6000 BKN006 OVC015